createdAt,value
2023-10-23T00:00:35.311Z,11.82
2023-10-23T00:01:35.258Z,11.82
2023-10-23T00:02:35.285Z,11.75
2023-10-23T00:03:35.397Z,11.70
2023-10-23T00:04:35.456Z,11.75
2023-10-23T00:05:35.267Z,11.60
2023-10-23T00:06:35.301Z,11.65
2023-10-23T00:07:35.182Z,11.55
2023-10-23T00:08:35.187Z,11.55
2023-10-23T00:09:35.215Z,11.46
2023-10-23T00:10:35.148Z,11.46
2023-10-23T00:11:35.142Z,11.40
2023-10-23T00:12:35.162Z,11.37
2023-10-23T00:13:35.119Z,11.33
2023-10-23T00:14:35.143Z,11.27
2023-10-23T00:15:35.138Z,11.32
2023-10-23T00:16:35.124Z,11.44
2023-10-23T00:17:35.085Z,11.40
2023-10-23T00:18:35.091Z,11.35
2023-10-23T00:19:35.053Z,11.29
2023-10-23T00:20:35.038Z,11.37
2023-10-23T00:21:35.048Z,11.36
2023-10-23T00:22:35.018Z,11.33
2023-10-23T00:23:35.009Z,11.29
2023-10-23T00:24:35.034Z,11.27
2023-10-23T00:25:34.979Z,11.39
2023-10-23T00:26:34.967Z,11.42
2023-10-23T00:27:34.967Z,11.39
2023-10-23T00:28:34.952Z,11.42
2023-10-23T00:29:34.933Z,11.37
2023-10-23T00:30:34.962Z,11.42
2023-10-23T00:31:34.973Z,11.52
2023-10-23T00:32:34.995Z,11.54
2023-10-23T00:33:34.976Z,11.55
2023-10-23T00:34:34.878Z,11.55
2023-10-23T00:35:34.865Z,11.52
2023-10-23T00:36:34.903Z,11.64
2023-10-23T00:37:34.844Z,11.62
2023-10-23T00:38:34.832Z,11.65
2023-10-23T00:39:34.862Z,11.67
2023-10-23T00:40:34.810Z,11.62
2023-10-23T00:41:34.805Z,11.60
2023-10-23T00:42:34.852Z,11.62
2023-10-23T00:43:34.777Z,11.65
2023-10-23T00:44:34.758Z,11.62
2023-10-23T00:45:34.773Z,11.58
2023-10-23T00:46:34.777Z,11.72
2023-10-23T00:47:34.770Z,11.60
2023-10-23T00:48:34.727Z,11.60
2023-10-23T00:49:34.706Z,11.58
2023-10-23T00:50:34.704Z,11.76
2023-10-23T00:51:34.734Z,11.61
2023-10-23T00:52:34.689Z,11.67
2023-10-23T00:53:34.670Z,11.78
2023-10-23T00:54:34.703Z,11.61
2023-10-23T00:55:34.646Z,11.75
2023-10-23T00:56:34.620Z,11.65
2023-10-23T00:57:34.643Z,11.67
2023-10-23T00:58:34.597Z,11.65
2023-10-23T00:59:34.585Z,11.73
2023-10-23T01:00:34.661Z,11.65
2023-10-23T01:01:34.570Z,11.73
2023-10-23T01:02:34.660Z,11.62
2023-10-23T01:03:34.564Z,11.72
2023-10-23T01:04:34.604Z,11.65
2023-10-23T01:05:34.544Z,11.73
2023-10-23T01:06:34.564Z,11.67
2023-10-23T01:07:34.508Z,11.72
2023-10-23T01:08:34.496Z,11.64
2023-10-23T01:09:34.523Z,11.70
2023-10-23T01:10:34.486Z,11.65
2023-10-23T01:11:34.491Z,11.69
2023-10-23T01:12:34.482Z,11.60
2023-10-23T01:13:34.440Z,11.60
2023-10-23T01:14:34.447Z,11.58
2023-10-23T01:15:34.433Z,11.64
2023-10-23T01:16:34.454Z,11.55
2023-10-23T01:17:34.430Z,11.60
2023-10-23T01:18:34.502Z,11.57
2023-10-23T01:19:34.408Z,11.58
2023-10-23T01:20:34.373Z,11.60
2023-10-23T01:21:34.366Z,11.57
2023-10-23T01:22:34.347Z,11.61
2023-10-23T01:23:34.352Z,11.57
2023-10-23T01:24:34.396Z,11.58
2023-10-23T01:25:34.315Z,11.58
2023-10-23T01:26:34.295Z,11.60
2023-10-23T01:27:34.315Z,11.61
2023-10-23T01:28:34.289Z,11.64
2023-10-23T01:29:34.272Z,11.57
2023-10-23T01:30:34.379Z,11.60
2023-10-23T01:31:34.287Z,11.60
2023-10-23T01:32:34.281Z,11.58
2023-10-23T01:33:34.265Z,11.61
2023-10-23T01:34:34.232Z,11.62
2023-10-23T01:35:34.193Z,11.61
2023-10-23T01:36:34.239Z,11.61
2023-10-23T01:37:34.184Z,11.64
2023-10-23T01:38:34.174Z,11.60
2023-10-23T01:39:34.197Z,11.64
2023-10-23T01:40:34.149Z,11.60
2023-10-23T01:41:34.136Z,11.61
2023-10-23T01:42:34.171Z,11.72
2023-10-23T01:43:34.097Z,11.72
2023-10-23T01:44:34.090Z,11.60
2023-10-23T01:45:34.097Z,11.60
2023-10-23T01:46:34.158Z,11.64
2023-10-23T01:47:34.132Z,11.78
2023-10-23T01:48:34.046Z,11.70
2023-10-23T01:49:34.028Z,11.78
2023-10-23T01:50:34.138Z,11.65
2023-10-23T01:51:34.071Z,11.70
2023-10-23T01:52:33.996Z,11.65
2023-10-23T01:53:33.982Z,11.70
2023-10-23T01:54:34.000Z,11.61
2023-10-23T01:55:33.967Z,11.69
2023-10-23T01:56:33.972Z,11.65
2023-10-23T01:57:33.970Z,11.64
2023-10-23T01:58:33.942Z,11.70
2023-10-23T01:59:33.925Z,11.69
2023-10-23T02:00:33.967Z,11.72
2023-10-23T02:01:33.924Z,11.70
2023-10-23T02:02:33.960Z,11.67
2023-10-23T02:03:33.989Z,11.70
2023-10-23T02:04:33.884Z,11.75
2023-10-23T02:05:33.866Z,11.65
2023-10-23T02:06:33.922Z,11.70
2023-10-23T02:07:33.829Z,11.70
2023-10-23T02:08:33.816Z,11.67
2023-10-23T02:09:33.823Z,11.73
2023-10-23T02:10:33.822Z,11.72
2023-10-23T02:11:33.775Z,11.70
2023-10-23T02:12:33.827Z,11.73
2023-10-23T02:13:33.758Z,11.73
2023-10-23T02:14:33.742Z,11.64
2023-10-23T02:15:33.815Z,11.72
2023-10-23T02:16:33.756Z,11.76
2023-10-23T02:17:33.794Z,11.76
2023-10-23T02:18:33.825Z,11.65
2023-10-23T02:19:33.725Z,11.60
2023-10-23T02:20:33.716Z,11.57
2023-10-23T02:21:33.731Z,11.65
2023-10-23T02:22:33.676Z,11.60
2023-10-23T02:23:48.843Z,11.78
2023-10-23T02:24:34.648Z,11.73
2023-10-23T02:25:33.617Z,11.61
2023-10-23T02:26:33.606Z,11.60
2023-10-23T02:27:33.653Z,11.58
2023-10-23T02:28:33.616Z,11.67
2023-10-23T02:29:33.584Z,11.60
2023-10-23T02:30:33.605Z,11.60
2023-10-23T02:31:33.596Z,11.62
2023-10-23T02:32:33.558Z,11.61
2023-10-23T02:33:33.600Z,11.57
2023-10-23T02:34:33.514Z,11.52
2023-10-23T02:35:33.503Z,11.55
2023-10-23T02:36:33.614Z,11.47
2023-10-23T02:37:33.479Z,11.44
2023-10-23T02:38:33.505Z,11.46
2023-10-23T02:39:33.601Z,11.40
2023-10-23T02:40:33.459Z,11.37
2023-10-23T02:41:33.455Z,11.35
2023-10-23T02:42:33.479Z,11.35
2023-10-23T02:43:33.436Z,11.33
2023-10-23T02:44:33.411Z,11.25
2023-10-23T02:45:33.407Z,11.39
2023-10-23T02:46:33.471Z,11.33
2023-10-23T02:47:33.411Z,11.27
2023-10-23T02:48:33.401Z,11.22
2023-10-23T02:49:33.355Z,11.18
2023-10-23T02:50:33.341Z,11.14
2023-10-23T02:51:33.361Z,11.06
2023-10-23T02:52:33.338Z,11.00
2023-10-23T02:53:33.307Z,10.97
2023-10-23T02:54:33.366Z,10.99
2023-10-23T02:55:33.285Z,10.85
2023-10-23T02:56:33.307Z,10.84
2023-10-23T02:57:33.292Z,10.84
2023-10-23T02:58:33.248Z,10.74
2023-10-23T02:59:33.242Z,10.76
2023-10-23T03:00:33.258Z,10.76
2023-10-23T03:01:33.278Z,10.76
2023-10-23T03:02:33.280Z,10.67
2023-10-23T03:03:33.327Z,10.71
2023-10-23T03:04:33.210Z,10.68
2023-10-23T03:05:33.168Z,10.73
2023-10-23T03:06:33.239Z,10.73
2023-10-23T03:07:33.152Z,10.76
2023-10-23T03:08:33.138Z,10.71
2023-10-23T03:09:33.173Z,10.73
2023-10-23T03:10:33.146Z,10.84
2023-10-23T03:11:33.122Z,10.78
2023-10-23T03:12:33.106Z,10.78
2023-10-23T03:13:33.083Z,10.88
2023-10-23T03:14:33.077Z,10.96
2023-10-23T03:15:33.111Z,10.97
2023-10-23T03:16:33.119Z,11.00
2023-10-23T03:17:33.047Z,11.00
2023-10-23T03:18:33.069Z,11.03
2023-10-23T03:19:33.026Z,10.97
2023-10-23T03:20:33.017Z,11.03
2023-10-23T03:21:33.007Z,11.04
2023-10-23T03:22:32.982Z,11.04
2023-10-23T03:23:32.969Z,11.10
2023-10-23T03:24:32.972Z,11.18
2023-10-23T03:25:32.954Z,11.14
2023-10-23T03:26:32.951Z,11.18
2023-10-23T03:27:32.958Z,11.17
2023-10-23T03:28:32.910Z,11.17
2023-10-23T03:29:32.903Z,11.18
2023-10-23T03:30:32.956Z,11.19
2023-10-23T03:31:32.903Z,11.22
2023-10-23T03:32:32.886Z,11.27
2023-10-23T03:33:32.928Z,11.25
2023-10-23T03:34:32.850Z,11.24
2023-10-23T03:35:32.824Z,11.18
2023-10-23T03:36:32.838Z,11.25
2023-10-23T03:37:32.801Z,11.32
2023-10-23T03:38:32.803Z,11.28
2023-10-23T03:39:32.834Z,11.36
2023-10-23T03:40:32.774Z,11.29
2023-10-23T03:41:32.761Z,11.29
2023-10-23T03:42:32.851Z,11.32
2023-10-23T03:43:33.061Z,11.36
2023-10-23T03:44:32.721Z,11.39
2023-10-23T03:45:32.779Z,11.29
2023-10-23T03:46:32.746Z,11.40
2023-10-23T03:47:32.746Z,11.33
2023-10-23T03:48:33.050Z,11.32
2023-10-23T03:49:32.728Z,11.19
2023-10-23T03:50:32.659Z,11.32
2023-10-23T03:51:32.672Z,11.29
2023-10-23T03:52:33.219Z,11.25
2023-10-23T03:53:32.981Z,11.27
2023-10-23T03:54:32.664Z,11.28
2023-10-23T03:55:32.680Z,11.32
2023-10-23T03:56:32.588Z,11.35
2023-10-23T03:57:33.043Z,11.39
2023-10-23T03:58:32.585Z,11.27
2023-10-23T03:59:32.548Z,11.25
2023-10-23T04:00:32.628Z,11.40
2023-10-23T04:01:32.606Z,11.25
2023-10-23T04:02:32.611Z,11.24
2023-10-23T04:03:32.615Z,11.19
2023-10-23T04:04:33.290Z,11.33
2023-10-23T04:05:32.495Z,11.27
2023-10-23T04:06:32.571Z,11.36
2023-10-23T04:07:32.469Z,11.42
2023-10-23T04:08:32.452Z,11.29
2023-10-23T04:09:32.461Z,11.33
2023-10-23T04:10:32.448Z,11.40
2023-10-23T04:11:32.432Z,11.36
2023-10-23T04:12:32.408Z,11.33
2023-10-23T04:13:32.398Z,11.36
2023-10-23T04:14:32.401Z,11.40
2023-10-23T04:15:32.418Z,11.39
2023-10-23T04:16:32.394Z,11.39
2023-10-23T04:17:32.417Z,11.37
2023-10-23T04:18:32.375Z,11.37
2023-10-23T04:19:32.324Z,11.36
2023-10-23T04:20:32.353Z,11.36
2023-10-23T04:21:32.330Z,11.40
2023-10-23T04:22:32.299Z,11.33
2023-10-23T04:23:32.288Z,11.35
2023-10-23T04:24:32.312Z,11.36
2023-10-23T04:25:32.284Z,11.40
2023-10-23T04:26:32.251Z,11.37
2023-10-23T04:27:32.253Z,11.39
2023-10-23T04:28:32.231Z,11.40
2023-10-23T04:29:32.340Z,11.40
2023-10-23T04:30:32.287Z,11.40
2023-10-23T04:31:32.221Z,11.39
2023-10-23T04:32:32.202Z,11.37
2023-10-23T04:33:32.227Z,11.39
2023-10-23T04:34:32.180Z,11.37
2023-10-23T04:35:32.168Z,11.40
2023-10-23T04:36:32.216Z,11.39
2023-10-23T04:37:32.133Z,11.36
2023-10-23T04:38:32.119Z,11.36
2023-10-23T04:39:32.158Z,11.37
2023-10-23T04:40:32.111Z,11.35
2023-10-23T04:41:32.096Z,11.36
2023-10-23T04:42:32.095Z,11.37
2023-10-23T04:43:32.081Z,11.39
2023-10-23T04:44:32.067Z,11.42
2023-10-23T04:45:32.081Z,11.35
2023-10-23T04:46:32.128Z,11.43
2023-10-23T04:47:32.060Z,11.40
2023-10-23T04:48:32.079Z,11.37
2023-10-23T04:49:32.006Z,11.40
2023-10-23T04:50:31.992Z,11.49
2023-10-23T04:51:32.005Z,11.43
2023-10-23T04:52:31.973Z,11.49
2023-10-23T04:53:31.971Z,11.52
2023-10-23T04:54:31.961Z,11.42
2023-10-23T04:55:31.936Z,11.43
2023-10-23T04:56:31.928Z,11.40
2023-10-23T04:57:32.010Z,11.42
2023-10-23T04:58:31.983Z,11.40
2023-10-23T04:59:31.889Z,11.42
2023-10-23T05:00:31.909Z,11.37
2023-10-23T05:01:31.952Z,11.40
2023-10-23T05:02:31.926Z,11.40
2023-10-23T05:03:31.896Z,11.40
2023-10-23T05:04:31.906Z,11.36
2023-10-23T05:05:31.832Z,11.40
2023-10-23T05:06:31.837Z,11.37
2023-10-23T05:07:31.826Z,11.39
2023-10-23T05:08:31.796Z,11.40
2023-10-23T05:09:31.831Z,11.43
2023-10-23T05:10:31.786Z,11.42
2023-10-23T05:11:31.766Z,11.39
2023-10-23T05:12:31.789Z,11.39
2023-10-23T05:13:31.729Z,11.40
2023-10-23T05:14:31.729Z,11.42
2023-10-23T05:15:31.737Z,11.37
2023-10-23T05:16:31.750Z,11.39
2023-10-23T05:17:31.793Z,11.37
2023-10-23T05:18:31.722Z,11.40
2023-10-23T05:19:31.668Z,11.36
2023-10-23T05:20:31.678Z,11.43
2023-10-23T05:21:31.667Z,11.40
2023-10-23T05:22:31.633Z,11.39
2023-10-23T05:23:31.622Z,11.40
2023-10-23T05:24:31.648Z,11.42
2023-10-23T05:25:31.620Z,11.37
2023-10-23T05:26:31.590Z,11.40
2023-10-23T05:27:31.625Z,11.42
2023-10-23T05:28:31.561Z,11.40
2023-10-23T05:29:31.562Z,11.42
2023-10-23T05:30:31.570Z,11.33
2023-10-23T05:31:31.680Z,11.35
2023-10-23T05:32:31.534Z,11.37
2023-10-23T05:33:31.528Z,11.40
2023-10-23T05:34:31.519Z,11.40
2023-10-23T05:35:31.496Z,11.37
2023-10-23T05:36:31.534Z,11.35
2023-10-23T05:37:31.461Z,11.40
2023-10-23T05:38:31.444Z,11.43
2023-10-23T05:39:31.488Z,11.42
2023-10-23T05:40:31.428Z,11.35
2023-10-23T05:41:31.406Z,11.35
2023-10-23T05:42:31.470Z,11.35
2023-10-23T05:43:31.384Z,11.33
2023-10-23T05:44:31.391Z,11.39
2023-10-23T05:45:31.530Z,11.40
2023-10-23T05:46:31.452Z,11.46
2023-10-23T05:47:31.457Z,11.32
2023-10-23T05:48:31.366Z,11.40
2023-10-23T05:49:31.332Z,11.42
2023-10-23T05:50:31.320Z,11.36
2023-10-23T05:51:31.312Z,11.39
2023-10-23T05:52:31.279Z,11.39
2023-10-23T05:53:31.292Z,11.27
2023-10-23T05:54:31.321Z,11.35
2023-10-23T05:55:31.252Z,11.29
2023-10-23T05:56:31.236Z,11.24
2023-10-23T05:57:31.350Z,11.22
2023-10-23T05:58:31.226Z,11.43
2023-10-23T05:59:31.202Z,11.40
2023-10-23T06:00:31.208Z,11.27
2023-10-23T06:01:31.197Z,11.36
2023-10-23T06:02:31.241Z,11.32
2023-10-23T06:03:31.265Z,11.27
2023-10-23T06:04:31.258Z,11.29
2023-10-23T06:05:31.138Z,11.32
2023-10-23T06:06:31.321Z,11.29
2023-10-23T06:07:31.380Z,11.22
2023-10-23T06:08:31.118Z,11.29
2023-10-23T06:09:31.107Z,11.33
2023-10-23T06:10:31.075Z,11.27
2023-10-23T06:11:31.071Z,11.27
2023-10-23T06:12:31.086Z,11.27
2023-10-23T06:13:31.051Z,11.39
2023-10-23T06:14:31.028Z,11.25
2023-10-23T06:15:31.068Z,11.44
2023-10-23T06:16:31.094Z,11.33
2023-10-23T06:17:31.031Z,11.35
2023-10-23T06:18:31.015Z,11.43
2023-10-23T06:19:30.974Z,11.37
2023-10-23T06:20:30.957Z,11.42
2023-10-23T06:21:30.967Z,11.40
2023-10-23T06:22:30.979Z,11.42
2023-10-23T06:23:30.930Z,11.43
2023-10-23T06:24:30.923Z,11.49
2023-10-23T06:25:30.912Z,11.47
2023-10-23T06:26:30.899Z,11.44
2023-10-23T06:27:30.902Z,11.52
2023-10-23T06:28:30.871Z,11.52
2023-10-23T06:29:30.859Z,11.46
2023-10-23T06:30:30.859Z,11.51
2023-10-23T06:31:30.913Z,11.51
2023-10-23T06:32:30.842Z,11.51
2023-10-23T06:33:30.841Z,11.44
2023-10-23T06:34:30.790Z,11.55
2023-10-23T06:35:30.793Z,11.51
2023-10-23T06:36:30.819Z,11.52
2023-10-23T06:37:30.756Z,11.51
2023-10-23T06:38:30.814Z,11.55
2023-10-23T06:39:30.733Z,11.52
2023-10-23T06:40:30.729Z,11.51
2023-10-23T06:41:30.715Z,11.60
2023-10-23T06:42:30.701Z,11.62
2023-10-23T06:43:30.686Z,11.60
2023-10-23T06:44:30.671Z,11.61
2023-10-23T06:45:42.523Z,11.69
2023-10-23T06:46:31.695Z,11.67
2023-10-23T06:47:30.635Z,11.76
2023-10-23T06:48:30.754Z,11.65
2023-10-23T06:49:30.627Z,11.70
2023-10-23T06:50:30.607Z,11.76
2023-10-23T06:51:30.588Z,11.70
2023-10-23T06:52:30.588Z,11.65
2023-10-23T06:53:30.563Z,11.75
2023-10-23T06:54:30.574Z,11.73
2023-10-23T06:55:30.555Z,11.75
2023-10-23T06:56:30.531Z,11.76
2023-10-23T06:57:30.520Z,11.75
2023-10-23T06:58:30.510Z,11.86
2023-10-23T06:59:30.517Z,11.82
2023-10-23T07:00:30.477Z,11.80
2023-10-23T07:01:44.020Z,11.83
2023-10-23T07:02:31.515Z,11.85
2023-10-23T07:03:30.558Z,11.86
2023-10-23T07:04:30.496Z,11.86
2023-10-23T07:05:30.767Z,11.83
2023-10-23T07:06:30.430Z,11.90
2023-10-23T07:07:30.866Z,11.82
2023-10-23T07:08:30.415Z,11.82
2023-10-23T07:09:30.391Z,11.85
2023-10-23T07:10:30.399Z,11.82
2023-10-23T07:11:30.372Z,11.80
2023-10-23T07:12:30.393Z,11.83
2023-10-23T07:13:30.361Z,11.65
2023-10-23T07:14:30.341Z,11.73
2023-10-23T07:15:30.377Z,11.70
2023-10-23T07:16:30.456Z,11.70
2023-10-23T07:17:30.443Z,11.61
2023-10-23T07:18:30.430Z,11.69
2023-10-23T07:19:30.289Z,11.60
2023-10-23T07:20:30.274Z,11.69
2023-10-23T07:21:30.269Z,11.65
2023-10-23T07:22:30.273Z,11.70
2023-10-23T07:23:30.249Z,11.69
2023-10-23T07:24:30.232Z,11.69
2023-10-23T07:25:30.220Z,11.73
2023-10-23T07:26:30.342Z,11.67
2023-10-23T07:27:31.414Z,11.65
2023-10-23T07:28:30.179Z,11.75
2023-10-23T07:29:30.174Z,11.73
2023-10-23T07:30:30.240Z,11.69
2023-10-23T07:31:30.249Z,11.79
2023-10-23T07:32:30.174Z,11.79
2023-10-23T07:33:30.129Z,11.82
2023-10-23T07:34:30.130Z,11.86
2023-10-23T07:35:36.904Z,11.88
2023-10-23T07:36:31.111Z,11.85
2023-10-23T07:37:30.079Z,12.05
2023-10-23T07:38:30.064Z,12.04
2023-10-23T07:39:30.060Z,12.13
2023-10-23T07:40:30.041Z,11.99
2023-10-23T07:41:30.047Z,12.01
2023-10-23T07:42:30.031Z,12.02
2023-10-23T07:43:29.999Z,12.07
2023-10-23T07:44:30.012Z,12.10
2023-10-23T07:45:30.024Z,12.12
2023-10-23T07:46:30.027Z,12.10
2023-10-23T07:47:29.975Z,12.10
2023-10-23T07:48:29.966Z,12.13
2023-10-23T07:49:29.942Z,12.07
2023-10-23T07:50:29.926Z,12.12
2023-10-23T07:51:29.903Z,12.24
2023-10-23T07:52:29.892Z,12.31
2023-10-23T07:53:29.885Z,12.27
2023-10-23T07:54:29.878Z,12.38
2023-10-23T07:55:29.899Z,12.41
2023-10-23T07:56:29.854Z,12.42
2023-10-23T07:57:29.837Z,12.46
2023-10-23T07:58:29.838Z,12.54
2023-10-23T07:59:29.833Z,12.53
2023-10-23T08:00:29.810Z,12.60
2023-10-23T08:01:29.904Z,12.54
2023-10-23T08:02:29.888Z,12.77
2023-10-23T08:03:29.890Z,12.67
2023-10-23T08:04:29.834Z,12.86
2023-10-23T08:05:29.744Z,12.92
2023-10-23T08:06:29.727Z,13.00
2023-10-23T08:07:29.717Z,13.14
2023-10-23T08:08:29.706Z,13.12
2023-10-23T08:09:29.718Z,13.22
2023-10-23T08:10:29.685Z,13.12
2023-10-23T08:11:29.673Z,13.25
2023-10-23T08:12:29.663Z,13.26
2023-10-23T08:13:29.661Z,13.22
2023-10-23T08:14:29.666Z,13.30
2023-10-23T08:15:29.663Z,13.25
2023-10-23T08:16:29.711Z,13.38
2023-10-23T08:18:37.308Z,13.39
2023-10-23T08:19:30.749Z,13.44
2023-10-23T08:20:29.580Z,13.49
2023-10-23T08:21:29.570Z,13.54
2023-10-23T08:22:29.567Z,13.55
2023-10-23T08:23:29.550Z,13.51
2023-10-23T08:24:29.528Z,13.51
2023-10-23T08:25:29.578Z,13.62
2023-10-23T08:26:29.504Z,13.55
2023-10-23T08:27:29.880Z,13.62
2023-10-23T08:28:38.221Z,13.57
2023-10-23T08:29:30.477Z,13.67
2023-10-23T08:30:29.483Z,13.71
2023-10-23T08:31:39.349Z,13.69
2023-10-23T08:32:41.481Z,13.89
2023-10-23T08:33:30.497Z,13.96
2023-10-23T08:34:29.508Z,14.02
2023-10-23T08:35:29.428Z,14.14
2023-10-23T08:36:29.813Z,14.10
2023-10-23T08:37:29.447Z,14.25
2023-10-23T08:38:29.374Z,14.25
2023-10-23T08:39:29.356Z,14.35
2023-10-23T08:40:29.360Z,14.42
2023-10-23T08:41:29.364Z,14.42
2023-10-23T08:42:29.325Z,14.51
2023-10-23T08:43:29.309Z,14.52
2023-10-23T08:44:29.302Z,14.43
2023-10-23T08:45:29.296Z,14.37
2023-10-23T08:46:29.383Z,14.43
2023-10-23T08:47:29.308Z,14.43
2023-10-23T08:48:29.253Z,14.52
2023-10-23T08:49:29.318Z,14.72
2023-10-23T08:50:29.252Z,14.77
2023-10-23T08:51:29.246Z,14.88
2023-10-23T08:52:29.213Z,14.92
2023-10-23T08:53:29.198Z,14.94
2023-10-23T08:54:29.202Z,14.92
2023-10-23T08:55:29.191Z,14.91
2023-10-23T08:56:29.166Z,14.88
2023-10-23T08:57:29.153Z,14.69
2023-10-23T08:58:29.146Z,14.64
2023-10-23T08:59:29.134Z,14.62
2023-10-23T09:00:29.152Z,14.73
2023-10-23T09:01:29.318Z,14.83
2023-10-23T09:02:29.167Z,14.83
2023-10-23T09:04:02.547Z,14.83
2023-10-23T09:04:29.245Z,14.86
2023-10-23T09:05:29.173Z,14.88
2023-10-23T09:06:29.053Z,14.91
2023-10-23T09:07:29.045Z,14.91
2023-10-23T09:08:29.034Z,14.98
2023-10-23T09:09:29.032Z,14.94
2023-10-23T09:10:29.048Z,15.02
2023-10-23T09:11:29.007Z,15.03
2023-10-23T09:12:28.987Z,15.01
2023-10-23T09:13:28.980Z,15.01
2023-10-23T09:14:28.995Z,14.98
2023-10-23T09:15:28.964Z,14.96
2023-10-23T09:16:29.012Z,14.78
2023-10-23T09:17:28.947Z,14.84
2023-10-23T09:18:28.958Z,14.89
2023-10-23T09:19:28.925Z,14.80
2023-10-23T09:20:29.095Z,14.75
2023-10-23T09:21:29.094Z,14.86
2023-10-23T09:22:28.942Z,14.98
2023-10-23T09:23:28.872Z,15.25
2023-10-23T09:24:28.849Z,15.35
2023-10-23T09:25:28.876Z,15.49
2023-10-23T09:26:28.825Z,15.59
2023-10-23T09:27:28.813Z,15.82
2023-10-23T09:28:28.819Z,15.93
2023-10-23T09:29:28.833Z,16.11
2023-10-23T09:30:28.785Z,16.31
2023-10-23T09:31:28.892Z,16.39
2023-10-23T09:32:28.783Z,16.34
2023-10-23T09:33:28.757Z,16.45
2023-10-23T09:34:28.763Z,16.42
2023-10-23T09:35:28.723Z,16.49
2023-10-23T09:36:28.716Z,16.27
2023-10-23T09:37:28.811Z,16.11
2023-10-23T09:38:28.693Z,15.93
2023-10-23T09:39:28.689Z,15.78
2023-10-23T09:40:28.692Z,15.83
2023-10-23T09:41:28.662Z,15.65
2023-10-23T09:42:29.209Z,15.67
2023-10-23T09:43:28.687Z,15.59
2023-10-23T09:44:28.629Z,15.57
2023-10-23T09:45:28.611Z,15.49
2023-10-23T09:46:28.728Z,15.60
2023-10-23T09:47:28.623Z,15.59
2023-10-23T09:48:28.576Z,15.68
2023-10-23T09:49:28.717Z,15.76
2023-10-23T09:50:28.817Z,15.74
2023-10-23T09:51:28.560Z,15.97
2023-10-23T09:52:28.538Z,15.87
2023-10-23T09:53:28.521Z,15.84
2023-10-23T09:54:28.517Z,15.89
2023-10-23T09:55:28.544Z,15.92
2023-10-23T09:56:28.498Z,16.02
2023-10-23T09:57:28.482Z,16.04
2023-10-23T09:58:28.470Z,15.93
2023-10-23T09:59:28.575Z,15.69
2023-10-23T10:00:28.461Z,15.80
2023-10-23T10:01:28.495Z,15.75
2023-10-23T10:02:28.432Z,15.83
2023-10-23T10:03:28.672Z,15.87
2023-10-23T10:04:28.421Z,15.78
2023-10-23T10:05:28.401Z,15.72
2023-10-23T10:06:28.420Z,15.69
2023-10-23T10:07:28.414Z,15.53
2023-10-23T10:08:28.363Z,15.59
2023-10-23T10:09:28.349Z,15.53
2023-10-23T10:10:28.407Z,15.53
2023-10-23T10:11:28.378Z,15.67
2023-10-23T10:12:29.148Z,15.80
2023-10-23T10:13:28.302Z,15.97
2023-10-23T10:14:28.311Z,16.20
2023-10-23T10:15:28.318Z,16.28
2023-10-23T10:16:28.320Z,16.48
2023-10-23T10:17:28.300Z,16.56
2023-10-23T10:18:28.245Z,16.50
2023-10-23T10:19:28.331Z,16.39
2023-10-23T10:20:28.221Z,16.38
2023-10-23T10:21:28.204Z,16.21
2023-10-23T10:22:28.237Z,15.92
2023-10-23T10:23:28.191Z,15.90
2023-10-23T10:24:28.186Z,15.74
2023-10-23T10:25:28.211Z,15.78
2023-10-23T10:26:28.161Z,15.87
2023-10-23T10:27:28.166Z,15.86
2023-10-23T10:28:28.183Z,15.90
2023-10-23T10:29:28.136Z,16.20
2023-10-23T10:30:28.109Z,16.42
2023-10-23T10:31:28.194Z,16.61
2023-10-23T10:32:28.101Z,16.83
2023-10-23T10:34:24.835Z,16.94
2023-10-23T10:34:31.437Z,17.15
2023-10-23T10:35:41.454Z,17.18
2023-10-23T10:36:47.470Z,17.34
2023-10-23T10:37:29.211Z,17.34
2023-10-23T10:38:28.489Z,17.48
2023-10-23T10:39:28.009Z,17.62
2023-10-23T10:40:27.996Z,17.72
2023-10-23T10:41:27.989Z,17.75
2023-10-23T10:42:27.984Z,17.68
2023-10-23T10:43:27.971Z,17.62
2023-10-23T10:44:27.948Z,17.70
2023-10-23T10:45:27.937Z,17.41
2023-10-23T10:46:28.017Z,17.43
2023-10-23T10:47:28.013Z,17.36
2023-10-23T10:48:27.901Z,17.38
2023-10-23T10:49:27.961Z,17.40
2023-10-23T10:50:27.883Z,17.54
2023-10-23T10:51:27.883Z,17.22
2023-10-23T10:52:29.562Z,17.38
2023-10-23T10:53:27.844Z,17.36
2023-10-23T10:54:27.855Z,17.34
2023-10-23T10:55:27.871Z,17.21
2023-10-23T10:56:27.822Z,16.94
2023-10-23T10:57:27.808Z,16.88
2023-10-23T10:58:27.837Z,16.78
2023-10-23T10:59:27.797Z,16.46
2023-10-23T11:00:27.797Z,16.41
2023-10-23T11:01:27.846Z,16.28
2023-10-23T11:02:27.781Z,16.15
2023-10-23T11:03:28.747Z,15.89
2023-10-23T11:04:27.782Z,15.86
2023-10-23T11:05:27.725Z,15.82
2023-10-23T11:06:27.710Z,15.82
2023-10-23T11:07:27.692Z,15.96
2023-10-23T11:08:27.681Z,16.04
2023-10-23T11:09:27.673Z,16.12
2023-10-23T11:10:27.788Z,16.31
2023-10-23T11:11:27.663Z,16.42
2023-10-23T11:12:27.631Z,16.50
2023-10-23T11:13:27.647Z,16.52
2023-10-23T11:14:27.605Z,16.76
2023-10-23T11:15:27.615Z,16.91
2023-10-23T11:16:27.672Z,17.11
2023-10-23T11:17:27.642Z,17.16
2023-10-23T11:18:27.565Z,17.48
2023-10-23T11:19:27.612Z,17.43
2023-10-23T11:20:27.660Z,17.38
2023-10-23T11:21:27.552Z,17.62
2023-10-23T11:22:27.581Z,17.64
2023-10-23T11:23:27.505Z,17.62
2023-10-23T11:24:27.512Z,17.70
2023-10-23T11:25:27.542Z,17.68
2023-10-23T11:26:27.583Z,17.71
2023-10-23T11:27:27.464Z,17.62
2023-10-23T11:28:27.502Z,17.55
2023-10-23T11:29:27.449Z,17.62
2023-10-23T11:30:27.428Z,17.56
2023-10-23T11:31:27.525Z,17.59
2023-10-23T11:32:27.478Z,17.71
2023-10-23T11:33:27.406Z,17.79
2023-10-23T11:34:27.457Z,17.95
2023-10-23T11:35:27.375Z,17.97
2023-10-23T11:36:27.358Z,17.93
2023-10-23T11:37:27.386Z,17.89
2023-10-23T11:38:27.363Z,17.62
2023-10-23T11:39:27.343Z,17.62
2023-10-23T11:40:27.363Z,17.51
2023-10-23T11:41:27.305Z,17.25
2023-10-23T11:42:27.320Z,17.08
2023-10-23T11:43:27.329Z,16.97
2023-10-23T11:44:27.268Z,16.89
2023-10-23T11:45:27.261Z,16.66
2023-10-23T11:46:27.331Z,16.46
2023-10-23T11:47:27.276Z,16.46
2023-10-23T11:48:27.258Z,16.42
2023-10-23T11:49:27.242Z,16.45
2023-10-23T11:50:27.220Z,16.52
2023-10-23T11:51:27.231Z,16.73
2023-10-23T11:52:27.219Z,16.94
2023-10-23T11:53:27.169Z,17.01
2023-10-23T11:54:27.158Z,17.22
2023-10-23T11:55:27.231Z,17.15
2023-10-23T11:56:27.202Z,17.25
2023-10-23T11:57:27.141Z,17.30
2023-10-23T11:58:27.189Z,17.41
2023-10-23T11:59:27.472Z,17.43
2023-10-23T12:00:27.153Z,17.28
2023-10-23T12:01:27.186Z,17.08
2023-10-23T12:02:27.087Z,16.96
2023-10-23T12:03:27.053Z,16.96
2023-10-23T12:04:27.159Z,16.98
2023-10-23T12:05:27.034Z,16.98
2023-10-23T12:06:27.044Z,16.93
2023-10-23T12:07:27.031Z,16.96
2023-10-23T12:08:26.995Z,16.91
2023-10-23T12:09:26.985Z,17.03
2023-10-23T12:10:27.085Z,17.19
2023-10-23T12:11:27.001Z,17.18
2023-10-23T12:12:26.954Z,17.36
2023-10-23T12:13:26.979Z,17.25
2023-10-23T12:14:26.988Z,17.18
2023-10-23T12:15:26.930Z,17.11
2023-10-23T12:16:27.742Z,17.19
2023-10-23T12:17:27.192Z,17.18
2023-10-23T12:18:26.888Z,17.19
2023-10-23T12:19:26.894Z,17.16
2023-10-23T12:20:26.874Z,17.26
2023-10-23T12:21:26.864Z,17.30
2023-10-23T12:22:26.904Z,17.21
2023-10-23T12:23:26.830Z,17.11
2023-10-23T12:24:26.821Z,17.03
2023-10-23T12:25:26.859Z,17.03
2023-10-23T12:26:26.830Z,17.00
2023-10-23T12:27:26.790Z,17.01
2023-10-23T12:28:26.834Z,17.12
2023-10-23T12:29:26.779Z,17.15
2023-10-23T12:30:32.564Z,17.15
2023-10-23T12:31:27.878Z,17.14
2023-10-23T12:33:17.500Z,17.14
2023-10-23T12:33:35.535Z,17.14
2023-10-23T12:34:27.944Z,17.08
2023-10-23T12:35:26.802Z,17.01
2023-10-23T12:36:26.682Z,17.01
2023-10-23T12:37:26.740Z,17.06
2023-10-23T12:38:26.658Z,17.04
2023-10-23T12:39:26.700Z,17.03
2023-10-23T12:40:30.308Z,17.15
2023-10-23T12:41:27.638Z,17.21
2023-10-23T12:42:26.644Z,17.19
2023-10-23T12:43:26.660Z,17.25
2023-10-23T12:44:26.650Z,17.23
2023-10-23T12:45:26.582Z,17.25
2023-10-23T12:46:26.671Z,17.28
2023-10-23T12:47:26.664Z,17.16
2023-10-23T12:48:26.561Z,17.14
2023-10-23T12:49:26.583Z,17.21
2023-10-23T12:50:26.531Z,17.21
2023-10-23T12:51:26.513Z,17.16
2023-10-23T12:52:26.568Z,17.08
2023-10-23T12:53:26.532Z,17.04